createdAt,value
2022-11-25T00:00:31.931Z,9.13
2022-11-25T00:03:00.157Z,11.53
2022-11-25T00:05:28.808Z,6.37
2022-11-25T00:07:56.900Z,11.97
2022-11-25T00:10:25.025Z,8.30
2022-11-25T00:12:54.439Z,10.10
2022-11-25T00:15:22.531Z,8.10
2022-11-25T00:17:50.551Z,7.83
2022-11-25T00:20:20.468Z,8.10
2022-11-25T00:22:48.536Z,11.90
2022-11-25T00:25:16.736Z,13.07
2022-11-25T00:27:44.746Z,8.47
2022-11-25T00:30:15.134Z,9.50
2022-11-25T00:32:43.205Z,10.97
2022-11-25T00:35:11.293Z,12.20
2022-11-25T00:37:39.315Z,9.50
2022-11-25T00:40:08.700Z,7.60
2022-11-25T00:42:54.196Z,11.83
2022-11-25T00:45:23.673Z,10.80
2022-11-25T00:47:53.925Z,9.07
2022-11-25T00:50:21.983Z,11.97
2022-11-25T01:04:24.122Z,10.07
2022-11-25T01:06:52.276Z,10.50
2022-11-25T01:09:20.418Z,9.17
2022-11-25T01:11:51.040Z,7.30
2022-11-25T01:14:19.432Z,10.40
2022-11-25T01:16:47.540Z,10.57
2022-11-25T01:19:15.671Z,11.23
2022-11-25T01:21:45.143Z,10.00
2022-11-25T01:24:14.662Z,9.40
2022-11-25T01:26:43.143Z,12.17
2022-11-25T01:29:15.869Z,10.20
2022-11-25T01:31:44.794Z,8.57
2022-11-25T01:34:16.078Z,9.53
2022-11-25T01:36:45.768Z,6.27
2022-11-25T01:39:18.308Z,10.07
2022-11-25T01:41:47.358Z,10.83
2022-11-25T01:44:17.167Z,8.27
2022-11-25T01:47:02.767Z,10.20
2022-11-25T01:49:36.644Z,8.83
2022-11-25T01:52:15.375Z,11.40
2022-11-25T01:54:50.468Z,10.50
2022-11-25T01:57:23.024Z,9.20
2022-11-25T01:59:53.490Z,10.47
2022-11-25T02:02:22.783Z,12.47
2022-11-25T02:04:51.502Z,11.37
2022-11-25T02:07:27.329Z,9.27
2022-11-25T02:09:56.873Z,13.33
2022-11-25T02:12:25.307Z,7.27
2022-11-25T02:14:55.151Z,8.03
2022-11-25T02:17:23.298Z,9.13
2022-11-25T02:20:00.942Z,11.03
2022-11-25T02:22:45.019Z,9.80
2022-11-25T02:25:17.535Z,13.23
2022-11-25T02:27:49.204Z,9.20
2022-11-25T02:30:17.356Z,19.37
2022-11-25T02:32:45.973Z,11.23
2022-11-25T02:35:32.723Z,13.40
2022-11-25T02:38:08.671Z,13.53
2022-11-25T02:40:46.980Z,13.97
2022-11-25T02:43:16.022Z,6.13
2022-11-25T02:45:53.899Z,17.53
2022-11-25T02:48:34.488Z,10.60
2022-11-25T02:51:13.274Z,12.17
2022-11-25T02:53:42.044Z,12.93
2022-11-25T02:56:13.029Z,8.40
2022-11-25T02:58:41.217Z,10.27
2022-11-25T03:06:39.932Z,12.63
2022-11-25T03:09:08.093Z,8.33
2022-11-25T03:11:54.612Z,8.50
2022-11-25T03:14:22.670Z,10.13
2022-11-25T03:16:50.825Z,10.43
2022-11-25T03:19:18.949Z,11.83
2022-11-25T03:21:47.038Z,12.40
2022-11-25T03:24:15.075Z,7.00
2022-11-25T03:26:44.516Z,8.77
2022-11-25T03:29:12.545Z,9.23
2022-11-25T03:31:40.809Z,7.73
2022-11-25T03:34:08.846Z,13.40
2022-11-25T03:36:36.990Z,13.57
2022-11-25T03:39:05.212Z,7.87
2022-11-25T03:41:33.294Z,14.80
2022-11-25T03:44:02.654Z,10.43
2022-11-25T03:46:30.729Z,8.40
2022-11-25T03:48:58.864Z,6.50
2022-11-25T03:51:26.860Z,8.30
2022-11-25T03:53:54.938Z,5.90
2022-11-25T03:56:22.966Z,12.70
2022-11-25T03:58:51.004Z,15.70
2022-11-25T04:01:20.467Z,8.13
2022-11-25T04:03:48.538Z,12.10
2022-11-25T04:06:20.076Z,4.87
2022-11-25T04:08:48.158Z,11.93
2022-11-25T04:11:16.173Z,10.93
2022-11-25T04:13:43.299Z,5.20
2022-11-25T04:16:23.554Z,13.43
2022-11-25T04:18:51.845Z,7.20
2022-11-25T04:21:19.880Z,6.93
2022-11-25T04:23:47.888Z,9.10
2022-11-25T04:26:15.893Z,9.43
2022-11-25T04:28:43.967Z,10.97
2022-11-25T04:31:12.099Z,11.70
2022-11-25T04:33:41.539Z,12.07
2022-11-25T04:36:10.509Z,15.00
2022-11-25T04:38:38.530Z,11.93
2022-11-25T04:41:06.888Z,5.67
2022-11-25T04:43:34.954Z,15.73
2022-11-25T04:46:13.908Z,12.10
2022-11-25T04:48:44.040Z,12.63
2022-11-25T04:51:12.306Z,12.47
2022-11-25T04:53:40.508Z,7.80
2022-11-25T04:56:08.886Z,9.47
2022-11-25T04:58:54.391Z,9.33
2022-11-25T05:01:22.437Z,12.37
2022-11-25T05:03:57.100Z,8.97
2022-11-25T05:06:25.725Z,14.37
2022-11-25T05:08:54.921Z,10.87
2022-11-25T05:11:22.964Z,13.47
2022-11-25T05:13:50.983Z,15.43
2022-11-25T05:16:19.084Z,6.67
2022-11-25T05:18:47.111Z,9.53
2022-11-25T05:21:16.493Z,9.07
2022-11-25T05:23:44.507Z,8.70
2022-11-25T05:26:12.736Z,7.07
2022-11-25T05:28:40.738Z,10.03
2022-11-25T05:31:08.913Z,7.00
2022-11-25T05:33:36.994Z,7.80
2022-11-25T05:36:06.057Z,8.07
2022-11-25T05:38:35.556Z,7.33
2022-11-25T05:41:05.291Z,5.03
2022-11-25T05:43:33.916Z,9.00
2022-11-25T05:46:05.912Z,6.77
2022-11-25T05:48:34.204Z,5.23
2022-11-25T05:51:02.223Z,3.57
2022-11-25T05:53:30.874Z,6.40
2022-11-25T05:56:02.419Z,4.17
2022-11-25T05:58:31.310Z,8.97
2022-11-25T06:00:59.381Z,4.97
2022-11-25T06:03:28.388Z,7.40
2022-11-25T06:05:57.121Z,6.67
2022-11-25T06:08:25.273Z,3.60
2022-11-25T06:10:53.321Z,5.57
2022-11-25T06:13:23.279Z,4.50
2022-11-25T06:15:51.377Z,7.27
2022-11-25T06:18:19.900Z,6.03
2022-11-25T06:20:57.798Z,8.60
2022-11-25T06:23:26.496Z,7.43
2022-11-25T06:25:54.564Z,3.03
2022-11-25T06:28:23.937Z,3.70
2022-11-25T06:30:52.063Z,6.50
2022-11-25T06:33:20.178Z,3.37
2022-11-25T06:35:48.228Z,8.97
2022-11-25T06:38:16.245Z,6.53
2022-11-25T06:40:44.299Z,5.60
2022-11-25T06:43:12.334Z,5.30
2022-11-25T06:45:41.777Z,6.57
2022-11-25T06:48:09.792Z,7.27
2022-11-25T06:50:37.865Z,5.73
2022-11-25T06:53:05.918Z,6.70
2022-11-25T06:55:34.036Z,5.07
2022-11-25T06:58:27.878Z,4.03
2022-11-25T07:00:51.421Z,4.30
2022-11-25T07:03:19.530Z,6.37
2022-11-25T07:05:47.570Z,6.67
2022-11-25T07:08:15.701Z,6.07
2022-11-25T07:10:43.739Z,7.70
2022-11-25T07:13:11.792Z,7.47
2022-11-25T07:15:39.816Z,10.90
2022-11-25T07:18:09.218Z,6.30
2022-11-25T07:20:37.251Z,5.93
2022-11-25T07:23:05.375Z,6.43
2022-11-25T07:25:34.341Z,8.50
2022-11-25T07:28:02.393Z,8.70
2022-11-25T07:31:21.726Z,3.93
2022-11-25T07:33:19.851Z,5.13
2022-11-25T07:35:47.984Z,6.13
2022-11-25T07:38:16.030Z,6.90
2022-11-25T07:40:44.078Z,6.10
2022-11-25T07:43:12.194Z,3.50
2022-11-25T07:45:40.175Z,7.70
2022-11-25T07:48:08.194Z,7.60
2022-11-25T07:50:38.510Z,7.20
2022-11-25T07:53:06.521Z,8.50
2022-11-25T07:55:34.553Z,5.10
2022-11-25T07:58:02.578Z,6.00
2022-11-25T08:00:30.638Z,5.50
2022-11-25T08:02:58.755Z,6.63
2022-11-25T08:05:26.876Z,4.90
2022-11-25T08:07:56.858Z,7.10
2022-11-25T08:10:24.941Z,10.17
2022-11-25T08:12:53.061Z,7.47
2022-11-25T08:15:21.095Z,6.90
2022-11-25T08:17:52.469Z,4.93
2022-11-25T08:20:20.515Z,10.53
2022-11-25T08:22:48.565Z,9.60
2022-11-25T08:25:18.144Z,7.13
2022-11-25T08:27:47.674Z,8.80
2022-11-25T08:30:16.109Z,5.90
2022-11-25T08:32:44.169Z,9.00
2022-11-25T08:35:12.208Z,5.10
2022-11-25T08:37:40.288Z,6.17
2022-11-25T08:40:10.602Z,5.23
2022-11-25T08:42:40.303Z,5.30
2022-11-25T08:45:11.011Z,7.53
2022-11-25T08:47:39.161Z,9.23
2022-11-25T08:50:08.494Z,8.20
2022-11-25T08:52:36.539Z,9.80
2022-11-25T08:55:04.982Z,6.00
2022-11-25T08:57:33.030Z,10.67
2022-11-25T09:00:02.561Z,8.00
2022-11-25T09:02:30.575Z,10.17
2022-11-25T09:04:58.663Z,5.67
2022-11-25T09:07:30.685Z,6.23
2022-11-25T09:09:58.903Z,6.70
2022-11-25T09:12:26.960Z,8.23
2022-11-25T09:14:54.997Z,6.50
2022-11-25T09:17:24.328Z,6.90
2022-11-25T09:19:52.865Z,5.10
2022-11-25T09:22:21.001Z,5.83
2022-11-25T09:24:49.152Z,6.73
2022-11-25T09:27:17.168Z,7.30
2022-11-25T09:29:45.168Z,3.93
2022-11-25T09:32:13.178Z,7.27
2022-11-25T09:34:42.615Z,8.20
2022-11-25T09:37:12.380Z,5.87
2022-11-25T09:39:40.603Z,6.73
2022-11-25T09:42:48.785Z,9.10
2022-11-25T09:45:38.690Z,8.57
2022-11-25T09:48:26.426Z,5.37
2022-11-25T10:02:25.369Z,7.63
2022-11-25T10:05:00.672Z,11.23
2022-11-25T10:07:37.631Z,5.80
2022-11-25T10:10:08.147Z,5.37
2022-11-25T10:12:41.608Z,10.30
2022-11-25T10:15:18.920Z,6.30
2022-11-25T10:17:50.640Z,7.43
2022-11-25T10:20:23.700Z,6.67
2022-11-25T10:22:55.008Z,6.57
2022-11-25T10:25:25.197Z,9.13
2022-11-25T10:27:59.826Z,5.27
2022-11-25T10:30:33.136Z,11.90
2022-11-25T10:33:12.245Z,9.97
2022-11-25T10:35:44.404Z,7.20
2022-11-25T10:38:19.776Z,6.80
2022-11-25T10:40:50.668Z,4.67
2022-11-25T10:43:18.946Z,7.17
2022-11-25T10:45:51.806Z,5.97
2022-11-25T10:48:34.387Z,6.47
2022-11-25T10:51:13.160Z,9.30
2022-11-25T10:53:41.176Z,4.67
2022-11-25T10:56:13.151Z,5.30
2022-11-25T10:58:42.829Z,8.13
2022-11-25T11:01:18.857Z,8.23
2022-11-25T11:03:53.486Z,7.33
2022-11-25T11:06:33.672Z,4.10
2022-11-25T11:09:02.116Z,5.33
2022-11-25T11:11:30.899Z,6.53
2022-11-25T11:14:14.863Z,5.63
2022-11-25T11:16:45.661Z,5.30
2022-11-25T11:19:32.984Z,4.27
2022-11-25T11:22:26.833Z,8.50
2022-11-25T11:25:07.372Z,6.07
2022-11-25T11:27:38.801Z,7.00
2022-11-25T11:30:11.526Z,6.87
2022-11-25T11:32:43.399Z,5.77
2022-11-25T11:35:22.138Z,5.23
2022-11-25T11:37:53.878Z,6.77
2022-11-25T11:40:36.645Z,5.87
2022-11-25T11:43:26.298Z,4.47
2022-11-25T11:46:16.273Z,6.80
2022-11-25T11:48:53.768Z,4.20
2022-11-25T11:51:28.387Z,5.47
2022-11-25T11:54:06.186Z,9.37
2022-11-25T11:56:40.074Z,9.87
2022-11-25T11:59:40.238Z,7.33
2022-11-25T12:02:21.158Z,6.30
2022-11-25T12:05:01.969Z,6.37
2022-11-25T12:07:37.597Z,8.40
2022-11-25T12:10:20.489Z,10.37
2022-11-25T12:12:54.333Z,5.23
2022-11-25T12:15:31.150Z,5.77
2022-11-25T12:18:03.752Z,6.03
2022-11-25T12:20:39.656Z,8.93
2022-11-25T12:23:12.714Z,8.90
2022-11-25T12:25:44.432Z,6.87
2022-11-25T12:28:19.234Z,6.23
2022-11-25T12:31:04.574Z,5.87
2022-11-25T12:33:43.409Z,10.50
2022-11-25T12:36:16.454Z,7.83
2022-11-25T12:38:52.758Z,5.83
2022-11-25T12:41:26.440Z,5.77
2022-11-25T12:44:01.505Z,6.43
2022-11-25T12:46:37.707Z,7.43
2022-11-25T12:49:08.192Z,14.80
2022-11-25T12:52:07.457Z,6.73
2022-11-25T12:55:04.273Z,11.07
2022-11-25T12:58:14.002Z,6.67
2022-11-25T13:01:15.169Z,8.20
2022-11-25T13:04:28.248Z,6.70
2022-11-25T13:07:24.773Z,5.33
2022-11-25T13:10:15.998Z,8.57
2022-11-25T13:12:55.201Z,4.87
2022-11-25T13:15:28.424Z,5.63
2022-11-25T13:18:00.274Z,4.67
2022-11-25T13:20:46.908Z,7.90
2022-11-25T13:23:43.326Z,9.83
2022-11-25T13:26:48.472Z,8.77
2022-11-25T13:29:59.387Z,4.93
2022-11-25T13:32:36.185Z,6.17
2022-11-25T13:35:38.966Z,10.20
2022-11-25T13:38:40.684Z,6.30
2022-11-25T13:41:45.298Z,5.80
2022-11-25T13:44:21.498Z,10.83
2022-11-25T13:46:51.641Z,7.93
2022-11-25T13:49:30.549Z,5.50
2022-11-25T13:52:01.949Z,4.67
2022-11-25T13:54:38.107Z,7.67
2022-11-25T13:57:26.549Z,6.23
2022-11-25T13:59:57.888Z,9.17
2022-11-25T14:02:45.293Z,8.53
2022-11-25T14:05:37.474Z,5.30
2022-11-25T14:08:15.864Z,9.93
2022-11-25T14:10:50.655Z,11.10
2022-11-25T14:13:52.868Z,9.97
2022-11-25T14:16:47.118Z,9.53
2022-11-25T14:19:51.106Z,6.10
2022-11-25T14:22:32.582Z,10.13
2022-11-25T14:25:14.529Z,9.07
2022-11-25T14:27:48.226Z,6.97
2022-11-25T14:30:18.935Z,9.87
2022-11-25T14:32:56.004Z,5.67
2022-11-25T14:35:29.398Z,12.00
2022-11-25T14:38:01.288Z,9.03
2022-11-25T14:40:35.856Z,7.07
2022-11-25T14:43:06.863Z,8.77
2022-11-25T14:45:37.172Z,10.97
2022-11-25T14:48:15.594Z,12.63
2022-11-25T14:50:57.898Z,9.87
2022-11-25T14:53:26.661Z,10.83
2022-11-25T14:55:55.082Z,12.77
2022-11-25T14:58:23.292Z,13.37
2022-11-25T15:00:54.591Z,11.10
2022-11-25T15:03:22.689Z,7.47
2022-11-25T15:05:57.154Z,11.67
2022-11-25T15:08:26.848Z,11.30
2022-11-25T15:10:57.408Z,7.80
2022-11-25T15:13:35.537Z,9.37
2022-11-25T15:16:10.616Z,12.87
2022-11-25T15:18:39.392Z,15.17
2022-11-25T15:21:07.929Z,8.53
2022-11-25T15:23:38.829Z,12.30
2022-11-25T15:26:19.166Z,10.97
2022-11-25T15:28:47.588Z,11.43
2022-11-25T15:31:21.422Z,13.87
2022-11-25T15:33:54.826Z,9.43
2022-11-25T15:36:23.795Z,9.97
2022-11-25T15:38:52.300Z,15.53
2022-11-25T15:41:25.644Z,11.60
2022-11-25T15:43:56.560Z,12.60
2022-11-25T15:46:27.472Z,18.03
2022-11-25T15:48:59.139Z,19.00
2022-11-25T15:51:37.176Z,12.47
2022-11-25T15:54:08.890Z,12.87
2022-11-25T15:56:41.017Z,13.10
2022-11-25T15:59:40.577Z,13.90
2022-11-25T16:02:45.156Z,14.30
2022-11-25T16:05:40.147Z,14.03
2022-11-25T16:08:30.555Z,10.60
2022-11-25T16:11:01.234Z,16.53
2022-11-25T16:13:35.040Z,9.90
2022-11-25T16:16:17.062Z,18.63
2022-11-25T16:19:04.907Z,11.17
2022-11-25T16:21:44.601Z,14.63
2022-11-25T16:24:33.579Z,14.67
2022-11-25T16:27:03.797Z,19.07
2022-11-25T16:29:33.925Z,11.27
2022-11-25T16:32:02.972Z,11.80
2022-11-25T16:34:31.044Z,12.43
2022-11-25T16:37:00.413Z,16.10
2022-11-25T16:39:28.422Z,14.60
2022-11-25T16:42:01.513Z,14.07
2022-11-25T16:44:30.369Z,13.80
2022-11-25T16:46:58.993Z,14.07
2022-11-25T16:49:27.172Z,16.67
2022-11-25T16:51:55.323Z,10.10
2022-11-25T16:54:24.761Z,12.23
2022-11-25T16:56:55.415Z,11.47
2022-11-25T16:59:30.517Z,14.33
2022-11-25T17:01:59.967Z,32.50
2022-11-25T17:04:28.456Z,21.20
2022-11-25T17:07:31.058Z,21.00
2022-11-25T17:09:47.280Z,23.13
2022-11-25T17:12:19.073Z,18.57
2022-11-25T17:14:49.155Z,26.70
2022-11-25T17:17:24.635Z,17.73
2022-11-25T17:19:53.691Z,14.27
2022-11-25T17:22:23.255Z,23.90
2022-11-25T17:24:52.678Z,16.87
2022-11-25T17:27:26.070Z,20.33
2022-11-25T17:29:55.448Z,19.93
2022-11-25T17:32:25.446Z,16.70
2022-11-25T17:34:53.709Z,16.57
2022-11-25T17:37:23.928Z,21.37
2022-11-25T17:39:54.364Z,20.30
2022-11-25T17:42:27.938Z,16.90
2022-11-25T17:44:56.029Z,17.27
2022-11-25T17:47:24.296Z,20.10
2022-11-25T17:49:53.179Z,15.90
2022-11-25T17:52:21.341Z,19.47
2022-11-25T17:54:49.419Z,15.17
2022-11-25T17:57:22.660Z,17.30
2022-11-25T17:59:51.025Z,20.10
2022-11-25T18:02:21.011Z,20.10
2022-11-25T18:04:49.602Z,15.20
2022-11-25T18:07:17.861Z,18.90
2022-11-25T18:09:46.299Z,16.83
2022-11-25T18:12:19.978Z,17.10
2022-11-25T18:14:48.161Z,18.07
2022-11-25T18:17:18.969Z,17.90
2022-11-25T18:19:54.594Z,20.80
2022-11-25T18:22:24.578Z,18.17
2022-11-25T18:24:53.477Z,16.87
2022-11-25T18:27:26.944Z,19.53
2022-11-25T18:29:56.392Z,19.10
2022-11-25T18:32:25.928Z,15.93
2022-11-25T18:34:54.078Z,22.40
2022-11-25T18:37:22.611Z,16.43
2022-11-25T18:39:50.805Z,23.67
2022-11-25T18:42:26.584Z,21.30
2022-11-25T18:44:55.928Z,29.83
2022-11-25T18:47:24.158Z,25.10
2022-11-25T18:49:56.001Z,31.17
2022-11-25T18:52:24.778Z,20.57
2022-11-25T18:54:52.951Z,16.23
2022-11-25T18:57:21.109Z,23.23
2022-11-25T19:00:16.985Z,21.60
2022-11-25T19:02:38.968Z,18.77
2022-11-25T19:05:16.823Z,21.20
2022-11-25T19:07:45.238Z,21.90
2022-11-25T19:10:14.148Z,21.37
2022-11-25T19:12:44.935Z,24.23
2022-11-25T19:15:17.906Z,26.13
2022-11-25T19:17:48.566Z,23.00
2022-11-25T19:20:17.621Z,17.97
2022-11-25T19:22:45.859Z,16.47
2022-11-25T19:25:15.138Z,23.83
2022-11-25T19:27:47.297Z,20.90
2022-11-25T19:30:18.885Z,19.13
2022-11-25T19:32:48.833Z,25.90
2022-11-25T19:35:21.422Z,25.27
2022-11-25T19:37:49.480Z,20.20
2022-11-25T19:40:19.571Z,25.23
2022-11-25T19:42:48.413Z,18.20
2022-11-25T19:45:20.119Z,16.87
2022-11-25T19:47:50.151Z,17.17
2022-11-25T19:50:22.181Z,18.67
2022-11-25T19:52:50.859Z,17.60
2022-11-25T19:55:20.992Z,18.60
2022-11-25T19:57:50.192Z,20.77
2022-11-25T20:00:21.859Z,18.30
2022-11-25T20:02:52.041Z,20.57
2022-11-25T20:05:23.175Z,17.10
2022-11-25T20:07:51.474Z,23.17
2022-11-25T20:10:22.225Z,27.00
2022-11-25T20:12:50.949Z,22.83
2022-11-25T20:15:20.952Z,20.37
2022-11-25T20:17:51.443Z,21.37
2022-11-25T20:20:25.963Z,22.63
2022-11-25T20:22:56.786Z,25.57
2022-11-25T20:25:25.404Z,26.60
2022-11-25T20:27:53.755Z,19.73
2022-11-25T20:30:25.520Z,20.77
2022-11-25T20:32:54.188Z,19.07
2022-11-25T20:35:23.122Z,25.80
2022-11-25T20:37:57.574Z,20.33
2022-11-25T20:40:29.887Z,18.17
2022-11-25T20:42:58.876Z,18.03
2022-11-25T20:45:28.374Z,14.00
2022-11-25T20:47:59.044Z,21.37
2022-11-25T20:50:29.780Z,26.70
2022-11-25T20:52:57.935Z,20.90
2022-11-25T20:55:27.395Z,17.40
2022-11-25T20:57:55.441Z,16.07
2022-11-25T21:00:26.545Z,21.30
2022-11-25T21:02:57.681Z,20.23
2022-11-25T21:05:27.529Z,15.50
2022-11-25T21:07:55.741Z,21.53
2022-11-25T21:10:27.456Z,19.63
2022-11-25T21:12:56.587Z,21.80
2022-11-25T21:15:29.315Z,23.23
2022-11-25T21:17:59.666Z,28.73
2022-11-25T21:20:27.847Z,28.03
2022-11-25T21:22:58.910Z,24.93
2022-11-25T21:25:27.348Z,36.93
2022-11-25T21:27:55.506Z,31.03
2022-11-25T21:30:26.556Z,20.57
2022-11-25T21:32:57.098Z,17.30
2022-11-25T21:35:32.409Z,18.67
2022-11-25T21:38:04.892Z,20.23
2022-11-25T21:40:37.882Z,16.97
2022-11-25T21:43:06.932Z,18.33
2022-11-25T21:45:34.902Z,16.73
2022-11-25T21:48:02.960Z,20.00
2022-11-25T21:50:32.487Z,20.27
2022-11-25T21:53:01.033Z,17.93
2022-11-25T21:55:29.148Z,17.27
2022-11-25T21:57:57.251Z,17.97
2022-11-25T22:00:26.957Z,18.13
2022-11-25T22:02:55.693Z,19.60
2022-11-25T22:05:26.569Z,16.37
2022-11-25T22:07:57.149Z,19.67
2022-11-25T22:10:25.305Z,18.67
2022-11-25T22:12:53.437Z,21.67
2022-11-25T22:15:22.888Z,18.63
2022-11-25T22:17:54.199Z,22.83
2022-11-25T22:20:30.496Z,23.80
2022-11-25T22:23:00.106Z,24.67
2022-11-25T22:25:31.085Z,23.40
2022-11-25T22:27:59.345Z,25.43
2022-11-25T22:30:27.404Z,19.87
2022-11-25T22:33:02.099Z,21.07
2022-11-25T22:35:30.729Z,19.90
2022-11-25T22:38:00.160Z,19.70
2022-11-25T22:40:28.303Z,23.90
2022-11-25T22:42:57.386Z,30.43
2022-11-25T22:45:31.074Z,16.57
2022-11-25T22:48:00.528Z,24.57
2022-11-25T22:50:30.836Z,16.20
2022-11-25T22:53:01.895Z,20.00
2022-11-25T22:55:32.098Z,19.27
2022-11-25T22:58:04.070Z,23.50
2022-11-25T23:00:34.240Z,18.07
2022-11-25T23:03:05.565Z,20.40
2022-11-25T23:05:35.795Z,17.90
2022-11-25T23:08:12.492Z,18.80
2022-11-25T23:10:40.728Z,28.83
2022-11-25T23:13:08.932Z,19.57
2022-11-25T23:15:37.559Z,18.87
2022-11-25T23:18:08.634Z,24.97
2022-11-25T23:20:39.248Z,24.13
2022-11-25T23:23:15.321Z,28.30
2022-11-25T23:25:43.560Z,35.90
2022-11-25T23:28:11.732Z,22.17
2022-11-25T23:30:42.461Z,27.07
2022-11-25T23:33:18.375Z,29.83
2022-11-25T23:35:46.506Z,26.90
2022-11-25T23:38:19.635Z,21.77
2022-11-25T23:40:47.663Z,23.90
2022-11-25T23:43:17.195Z,34.53
2022-11-25T23:45:50.347Z,35.33
2022-11-25T23:48:19.024Z,36.00
2022-11-25T23:50:48.110Z,25.37
2022-11-25T23:53:23.786Z,23.73
2022-11-25T23:55:52.227Z,28.97
2022-11-25T23:58:21.928Z,23.90
